sensor_id;sensor_type;location;lat;lon;timestamp;P1;durP1;ratioP1;P2;durP2;ratioP2
18142;SDS011;9197;50.930;3.140;2023-11-21T00:00:13;23.37;;;12.13;;
18142;SDS011;9197;50.930;3.140;2023-11-21T00:02:41;23.07;;;9.77;;
18142;SDS011;9197;50.930;3.140;2023-11-21T00:05:11;19.03;;;10.53;;
18142;SDS011;9197;50.930;3.140;2023-11-21T00:07:42;21.07;;;10.03;;
18142;SDS011;9197;50.930;3.140;2023-11-21T00:10:11;17.67;;;10.10;;
18142;SDS011;9197;50.930;3.140;2023-11-21T00:12:39;15.67;;;9.47;;
18142;SDS011;9197;50.930;3.140;2023-11-21T00:15:07;20.37;;;10.50;;
18142;SDS011;9197;50.930;3.140;2023-11-21T00:17:36;20.10;;;9.80;;
18142;SDS011;9197;50.930;3.140;2023-11-21T00:20:03;23.13;;;10.73;;
18142;SDS011;9197;50.930;3.140;2023-11-21T00:22:32;17.23;;;10.57;;
18142;SDS011;9197;50.930;3.140;2023-11-21T00:25:00;19.23;;;10.63;;
18142;SDS011;9197;50.930;3.140;2023-11-21T00:27:29;18.83;;;10.73;;
18142;SDS011;9197;50.930;3.140;2023-11-21T00:29:56;22.03;;;10.33;;
18142;SDS011;9197;50.930;3.140;2023-11-21T00:32:23;23.07;;;10.30;;
18142;SDS011;9197;50.930;3.140;2023-11-21T00:34:50;16.83;;;10.33;;
18142;SDS011;9197;50.930;3.140;2023-11-21T00:37:17;18.13;;;10.27;;
18142;SDS011;9197;50.930;3.140;2023-11-21T00:39:44;14.87;;;9.30;;
18142;SDS011;9197;50.930;3.140;2023-11-21T00:42:12;16.67;;;10.17;;
18142;SDS011;9197;50.930;3.140;2023-11-21T00:44:40;18.10;;;9.67;;
18142;SDS011;9197;50.930;3.140;2023-11-21T00:47:07;22.47;;;10.03;;
18142;SDS011;9197;50.930;3.140;2023-11-21T00:49:34;27.40;;;10.13;;
18142;SDS011;9197;50.930;3.140;2023-11-21T00:52:01;19.93;;;9.70;;
18142;SDS011;9197;50.930;3.140;2023-11-21T00:54:28;19.97;;;10.30;;
18142;SDS011;9197;50.930;3.140;2023-11-21T00:56:55;21.20;;;10.57;;
18142;SDS011;9197;50.930;3.140;2023-11-21T00:59:24;21.07;;;11.03;;
18142;SDS011;9197;50.930;3.140;2023-11-21T01:01:51;21.40;;;10.00;;
18142;SDS011;9197;50.930;3.140;2023-11-21T01:04:19;18.00;;;9.93;;
18142;SDS011;9197;50.930;3.140;2023-11-21T01:06:46;17.67;;;10.27;;
18142;SDS011;9197;50.930;3.140;2023-11-21T01:09:13;19.00;;;10.27;;
18142;SDS011;9197;50.930;3.140;2023-11-21T01:11:42;24.77;;;11.13;;
18142;SDS011;9197;50.930;3.140;2023-11-21T01:14:09;18.67;;;10.27;;
18142;SDS011;9197;50.930;3.140;2023-11-21T01:16:37;16.03;;;9.33;;
18142;SDS011;9197;50.930;3.140;2023-11-21T01:19:04;23.83;;;9.53;;
18142;SDS011;9197;50.930;3.140;2023-11-21T01:21:32;23.17;;;9.27;;
18142;SDS011;9197;50.930;3.140;2023-11-21T01:23:59;22.70;;;10.23;;
18142;SDS011;9197;50.930;3.140;2023-11-21T01:26:26;25.33;;;9.83;;
18142;SDS011;9197;50.930;3.140;2023-11-21T01:28:53;18.53;;;9.83;;
18142;SDS011;9197;50.930;3.140;2023-11-21T01:31:20;19.37;;;10.27;;
18142;SDS011;9197;50.930;3.140;2023-11-21T01:33:49;16.87;;;8.93;;
18142;SDS011;9197;50.930;3.140;2023-11-21T01:36:16;23.80;;;10.53;;
18142;SDS011;9197;50.930;3.140;2023-11-21T01:38:43;16.20;;;8.63;;
18142;SDS011;9197;50.930;3.140;2023-11-21T01:41:10;13.77;;;8.60;;
18142;SDS011;9197;50.930;3.140;2023-11-21T01:43:38;21.77;;;9.13;;
18142;SDS011;9197;50.930;3.140;2023-11-21T01:46:05;19.73;;;9.67;;
18142;SDS011;9197;50.930;3.140;2023-11-21T01:48:32;20.03;;;10.63;;
18142;SDS011;9197;50.930;3.140;2023-11-21T01:51:02;19.83;;;10.20;;
18142;SDS011;9197;50.930;3.140;2023-11-21T01:53:30;24.90;;;10.27;;
18142;SDS011;9197;50.930;3.140;2023-11-21T01:55:57;18.40;;;9.73;;
18142;SDS011;9197;50.930;3.140;2023-11-21T01:58:25;24.47;;;11.23;;
18142;SDS011;9197;50.930;3.140;2023-11-21T02:00:52;22.87;;;10.73;;
18142;SDS011;9197;50.930;3.140;2023-11-21T02:03:20;16.80;;;9.53;;
18142;SDS011;9197;50.930;3.140;2023-11-21T02:05:47;24.20;;;11.10;;
18142;SDS011;9197;50.930;3.140;2023-11-21T02:08:15;22.37;;;11.60;;
18142;SDS011;9197;50.930;3.140;2023-11-21T02:10:44;23.13;;;11.83;;
18142;SDS011;9197;50.930;3.140;2023-11-21T02:13:12;22.87;;;11.63;;
18142;SDS011;9197;50.930;3.140;2023-11-21T02:15:41;33.90;;;12.80;;
18142;SDS011;9197;50.930;3.140;2023-11-21T02:18:08;22.13;;;12.60;;
18142;SDS011;9197;50.930;3.140;2023-11-21T02:20:36;23.17;;;13.10;;
18142;SDS011;9197;50.930;3.140;2023-11-21T02:23:08;23.67;;;13.47;;
18142;SDS011;9197;50.930;3.140;2023-11-21T02:25:35;27.80;;;13.57;;
18142;SDS011;9197;50.930;3.140;2023-11-21T02:28:03;24.73;;;13.63;;
18142;SDS011;9197;50.930;3.140;2023-11-21T02:30:31;26.00;;;13.93;;
18142;SDS011;9197;50.930;3.140;2023-11-21T02:32:59;29.27;;;13.87;;
18142;SDS011;9197;50.930;3.140;2023-11-21T02:35:26;34.13;;;15.23;;
18142;SDS011;9197;50.930;3.140;2023-11-21T02:37:56;29.63;;;14.57;;
18142;SDS011;9197;50.930;3.140;2023-11-21T02:40:24;35.60;;;16.77;;
18142;SDS011;9197;50.930;3.140;2023-11-21T02:42:52;39.17;;;18.13;;
18142;SDS011;9197;50.930;3.140;2023-11-21T02:45:20;33.13;;;16.83;;
18142;SDS011;9197;50.930;3.140;2023-11-21T02:47:47;34.63;;;17.80;;
18142;SDS011;9197;50.930;3.140;2023-11-21T02:50:15;36.00;;;19.40;;
18142;SDS011;9197;50.930;3.140;2023-11-21T02:52:44;44.03;;;20.13;;
18142;SDS011;9197;50.930;3.140;2023-11-21T02:55:11;44.53;;;20.17;;
18142;SDS011;9197;50.930;3.140;2023-11-21T02:57:40;47.23;;;21.50;;
18142;SDS011;9197;50.930;3.140;2023-11-21T03:00:08;39.47;;;19.70;;
18142;SDS011;9197;50.930;3.140;2023-11-21T03:02:38;42.37;;;21.53;;
18142;SDS011;9197;50.930;3.140;2023-11-21T03:05:05;37.43;;;19.73;;
18142;SDS011;9197;50.930;3.140;2023-11-21T03:07:34;47.83;;;19.00;;
18142;SDS011;9197;50.930;3.140;2023-11-21T03:10:01;35.73;;;18.20;;
18142;SDS011;9197;50.930;3.140;2023-11-21T03:12:29;32.97;;;18.50;;
18142;SDS011;9197;50.930;3.140;2023-11-21T03:14:58;32.60;;;18.27;;
18142;SDS011;9197;50.930;3.140;2023-11-21T03:17:27;41.90;;;19.53;;
18142;SDS011;9197;50.930;3.140;2023-11-21T03:19:55;35.07;;;19.27;;
18142;SDS011;9197;50.930;3.140;2023-11-21T03:22:23;33.70;;;18.00;;
18142;SDS011;9197;50.930;3.140;2023-11-21T03:24:51;39.23;;;19.57;;
18142;SDS011;9197;50.930;3.140;2023-11-21T03:27:18;39.77;;;20.47;;
18142;SDS011;9197;50.930;3.140;2023-11-21T03:29:45;35.67;;;20.03;;
18142;SDS011;9197;50.930;3.140;2023-11-21T03:32:14;36.60;;;18.13;;
18142;SDS011;9197;50.930;3.140;2023-11-21T03:34:52;37.23;;;18.77;;
18142;SDS011;9197;50.930;3.140;2023-11-21T03:37:21;37.13;;;18.10;;
18142;SDS011;9197;50.930;3.140;2023-11-21T03:39:48;31.27;;;17.93;;
18142;SDS011;9197;50.930;3.140;2023-11-21T03:42:16;31.27;;;17.37;;
18142;SDS011;9197;50.930;3.140;2023-11-21T03:44:43;30.37;;;17.23;;
18142;SDS011;9197;50.930;3.140;2023-11-21T03:47:10;27.57;;;15.93;;
18142;SDS011;9197;50.930;3.140;2023-11-21T03:49:38;31.73;;;17.40;;
18142;SDS011;9197;50.930;3.140;2023-11-21T03:52:06;33.00;;;17.93;;
18142;SDS011;9197;50.930;3.140;2023-11-21T03:54:34;28.67;;;16.07;;
18142;SDS011;9197;50.930;3.140;2023-11-21T03:57:01;26.33;;;16.10;;
18142;SDS011;9197;50.930;3.140;2023-11-21T03:59:28;21.70;;;14.67;;
18142;SDS011;9197;50.930;3.140;2023-11-21T04:01:56;26.90;;;15.00;;
18142;SDS011;9197;50.930;3.140;2023-11-21T04:04:25;26.77;;;16.63;;
18142;SDS011;9197;50.930;3.140;2023-11-21T04:06:53;28.50;;;16.30;;
18142;SDS011;9197;50.930;3.140;2023-11-21T04:09:21;25.80;;;15.80;;
18142;SDS011;9197;50.930;3.140;2023-11-21T04:11:50;24.00;;;14.10;;
18142;SDS011;9197;50.930;3.140;2023-11-21T04:14:17;28.77;;;15.57;;
18142;SDS011;9197;50.930;3.140;2023-11-21T04:16:44;24.60;;;14.23;;
18142;SDS011;9197;50.930;3.140;2023-11-21T04:19:11;22.97;;;13.77;;
18142;SDS011;9197;50.930;3.140;2023-11-21T04:21:39;23.90;;;13.43;;
18142;SDS011;9197;50.930;3.140;2023-11-21T04:24:08;21.33;;;12.77;;
18142;SDS011;9197;50.930;3.140;2023-11-21T04:26:35;23.23;;;12.47;;
18142;SDS011;9197;50.930;3.140;2023-11-21T04:29:03;22.07;;;13.30;;
18142;SDS011;9197;50.930;3.140;2023-11-21T04:31:30;21.20;;;12.07;;
18142;SDS011;9197;50.930;3.140;2023-11-21T04:33:58;20.43;;;12.43;;
18142;SDS011;9197;50.930;3.140;2023-11-21T04:36:25;20.50;;;11.40;;
18142;SDS011;9197;50.930;3.140;2023-11-21T04:38:52;21.93;;;12.07;;
18142;SDS011;9197;50.930;3.140;2023-11-21T04:41:20;18.73;;;11.93;;
18142;SDS011;9197;50.930;3.140;2023-11-21T04:43:48;17.87;;;11.53;;
18142;SDS011;9197;50.930;3.140;2023-11-21T04:46:15;18.43;;;10.63;;
18142;SDS011;9197;50.930;3.140;2023-11-21T04:48:42;16.57;;;11.30;;
18142;SDS011;9197;50.930;3.140;2023-11-21T04:51:09;17.13;;;11.60;;
18142;SDS011;9197;50.930;3.140;2023-11-21T04:53:38;13.67;;;9.83;;
18142;SDS011;9197;50.930;3.140;2023-11-21T04:56:05;15.00;;;9.87;;
18142;SDS011;9197;50.930;3.140;2023-11-21T04:58:34;14.90;;;9.83;;
18142;SDS011;9197;50.930;3.140;2023-11-21T05:01:01;15.80;;;10.27;;
18142;SDS011;9197;50.930;3.140;2023-11-21T05:03:29;13.33;;;9.57;;
18142;SDS011;9197;50.930;3.140;2023-11-21T05:05:56;13.73;;;10.27;;
18142;SDS011;9197;50.930;3.140;2023-11-21T05:08:24;13.43;;;8.80;;
18142;SDS011;9197;50.930;3.140;2023-11-21T05:10:52;13.53;;;8.93;;
18142;SDS011;9197;50.930;3.140;2023-11-21T05:13:20;13.33;;;8.70;;
18142;SDS011;9197;50.930;3.140;2023-11-21T05:15:49;12.10;;;8.87;;
18142;SDS011;9197;50.930;3.140;2023-11-21T05:18:16;14.23;;;8.63;;
18142;SDS011;9197;50.930;3.140;2023-11-21T05:20:43;12.43;;;9.20;;
18142;SDS011;9197;50.930;3.140;2023-11-21T05:23:11;13.10;;;8.80;;
18142;SDS011;9197;50.930;3.140;2023-11-21T05:25:38;15.30;;;9.00;;
18142;SDS011;9197;50.930;3.140;2023-11-21T05:28:06;17.20;;;9.43;;
18142;SDS011;9197;50.930;3.140;2023-11-21T05:30:33;14.27;;;9.37;;
18142;SDS011;9197;50.930;3.140;2023-11-21T05:33:02;18.93;;;10.20;;
18142;SDS011;9197;50.930;3.140;2023-11-21T05:35:29;18.93;;;9.50;;
18142;SDS011;9197;50.930;3.140;2023-11-21T05:37:56;24.27;;;10.63;;
18142;SDS011;9197;50.930;3.140;2023-11-21T05:40:23;17.77;;;9.67;;
18142;SDS011;9197;50.930;3.140;2023-11-21T05:42:54;23.47;;;11.63;;
18142;SDS011;9197;50.930;3.140;2023-11-21T05:45:21;22.30;;;11.70;;
18142;SDS011;9197;50.930;3.140;2023-11-21T05:47:48;20.87;;;10.13;;
18142;SDS011;9197;50.930;3.140;2023-11-21T05:50:17;23.43;;;11.17;;
18142;SDS011;9197;50.930;3.140;2023-11-21T05:52:44;17.90;;;10.10;;
18142;SDS011;9197;50.930;3.140;2023-11-21T05:55:12;22.47;;;11.00;;
18142;SDS011;9197;50.930;3.140;2023-11-21T05:57:41;21.23;;;12.77;;
18142;SDS011;9197;50.930;3.140;2023-11-21T06:00:10;24.23;;;12.33;;
18142;SDS011;9197;50.930;3.140;2023-11-21T06:02:43;24.07;;;12.33;;
18142;SDS011;9197;50.930;3.140;2023-11-21T06:05:11;20.87;;;11.93;;
18142;SDS011;9197;50.930;3.140;2023-11-21T06:07:39;23.80;;;12.27;;
18142;SDS011;9197;50.930;3.140;2023-11-21T06:10:07;26.97;;;12.47;;
18142;SDS011;9197;50.930;3.140;2023-11-21T06:12:36;22.90;;;12.83;;
18142;SDS011;9197;50.930;3.140;2023-11-21T06:15:03;25.50;;;14.67;;
18142;SDS011;9197;50.930;3.140;2023-11-21T06:17:33;30.97;;;14.23;;
18142;SDS011;9197;50.930;3.140;2023-11-21T06:20:01;29.83;;;14.73;;
18142;SDS011;9197;50.930;3.140;2023-11-21T06:22:34;33.70;;;15.13;;
18142;SDS011;9197;50.930;3.140;2023-11-21T06:25:02;33.37;;;14.57;;
18142;SDS011;9197;50.930;3.140;2023-11-21T06:27:31;25.70;;;13.97;;
18142;SDS011;9197;50.930;3.140;2023-11-21T06:29:59;29.57;;;16.23;;
18142;SDS011;9197;50.930;3.140;2023-11-21T06:32:26;31.43;;;16.10;;
18142;SDS011;9197;50.930;3.140;2023-11-21T06:34:54;32.37;;;13.73;;
18142;SDS011;9197;50.930;3.140;2023-11-21T06:37:24;34.20;;;18.43;;
18142;SDS011;9197;50.930;3.140;2023-11-21T06:39:52;29.97;;;17.33;;
18142;SDS011;9197;50.930;3.140;2023-11-21T06:42:20;35.73;;;16.07;;
18142;SDS011;9197;50.930;3.140;2023-11-21T06:44:47;25.87;;;13.37;;
18142;SDS011;9197;50.930;3.140;2023-11-21T06:47:16;31.90;;;16.00;;
18142;SDS011;9197;50.930;3.140;2023-11-21T06:49:46;32.57;;;16.23;;
18142;SDS011;9197;50.930;3.140;2023-11-21T06:52:14;28.50;;;15.13;;
18142;SDS011;9197;50.930;3.140;2023-11-21T06:54:41;43.40;;;17.53;;
18142;SDS011;9197;50.930;3.140;2023-11-21T06:57:09;39.90;;;18.00;;
18142;SDS011;9197;50.930;3.140;2023-11-21T06:59:37;37.37;;;18.90;;
18142;SDS011;9197;50.930;3.140;2023-11-21T07:02:04;29.07;;;16.17;;
18142;SDS011;9197;50.930;3.140;2023-11-21T07:04:32;33.03;;;17.33;;
18142;SDS011;9197;50.930;3.140;2023-11-21T07:06:59;34.43;;;16.40;;
18142;SDS011;9197;50.930;3.140;2023-11-21T07:09:27;27.67;;;14.83;;
18142;SDS011;9197;50.930;3.140;2023-11-21T07:11:54;25.97;;;13.17;;
18142;SDS011;9197;50.930;3.140;2023-11-21T07:14:22;26.13;;;13.27;;
18142;SDS011;9197;50.930;3.140;2023-11-21T07:16:51;28.83;;;14.97;;
18142;SDS011;9197;50.930;3.140;2023-11-21T07:19:18;23.73;;;13.47;;
18142;SDS011;9197;50.930;3.140;2023-11-21T07:21:46;24.80;;;14.27;;
18142;SDS011;9197;50.930;3.140;2023-11-21T07:24:16;24.20;;;13.33;;
18142;SDS011;9197;50.930;3.140;2023-11-21T07:26:43;26.17;;;12.47;;
18142;SDS011;9197;50.930;3.140;2023-11-21T07:29:10;21.47;;;11.63;;
18142;SDS011;9197;50.930;3.140;2023-11-21T07:31:38;23.30;;;12.63;;
18142;SDS011;9197;50.930;3.140;2023-11-21T07:34:07;21.67;;;12.30;;
18142;SDS011;9197;50.930;3.140;2023-11-21T07:36:37;22.90;;;12.80;;
18142;SDS011;9197;50.930;3.140;2023-11-21T07:39:04;19.60;;;12.80;;
18142;SDS011;9197;50.930;3.140;2023-11-21T07:41:32;21.23;;;11.53;;
18142;SDS011;9197;50.930;3.140;2023-11-21T07:43:59;16.43;;;10.20;;
18142;SDS011;9197;50.930;3.140;2023-11-21T07:46:26;10.53;;;7.77;;
18142;SDS011;9197;50.930;3.140;2023-11-21T07:48:53;12.00;;;7.30;;
18142;SDS011;9197;50.930;3.140;2023-11-21T07:51:22;11.63;;;6.77;;
18142;SDS011;9197;50.930;3.140;2023-11-21T07:53:49;9.30;;;7.70;;
18142;SDS011;9197;50.930;3.140;2023-11-21T07:56:17;9.97;;;6.33;;
18142;SDS011;9197;50.930;3.140;2023-11-21T07:58:44;13.43;;;7.93;;
18142;SDS011;9197;50.930;3.140;2023-11-21T08:01:11;13.20;;;7.37;;
18142;SDS011;9197;50.930;3.140;2023-11-21T08:03:39;13.77;;;8.93;;
18142;SDS011;9197;50.930;3.140;2023-11-21T08:06:06;11.70;;;8.13;;
18142;SDS011;9197;50.930;3.140;2023-11-21T08:08:35;16.67;;;10.43;;
18142;SDS011;9197;50.930;3.140;2023-11-21T08:11:02;15.27;;;10.13;;
18142;SDS011;9197;50.930;3.140;2023-11-21T08:13:30;20.37;;;12.43;;
18142;SDS011;9197;50.930;3.140;2023-11-21T08:15:57;20.60;;;11.07;;
18142;SDS011;9197;50.930;3.140;2023-11-21T08:18:28;16.77;;;12.17;;
18142;SDS011;9197;50.930;3.140;2023-11-21T08:20:56;18.67;;;11.30;;
18142;SDS011;9197;50.930;3.140;2023-11-21T08:23:23;20.33;;;10.70;;
18142;SDS011;9197;50.930;3.140;2023-11-21T08:25:52;21.43;;;12.90;;
18142;SDS011;9197;50.930;3.140;2023-11-21T08:28:20;21.67;;;13.90;;
18142;SDS011;9197;50.930;3.140;2023-11-21T08:30:48;20.23;;;13.60;;
18142;SDS011;9197;50.930;3.140;2023-11-21T08:33:15;20.70;;;14.70;;
18142;SDS011;9197;50.930;3.140;2023-11-21T08:35:42;24.53;;;15.43;;
18142;SDS011;9197;50.930;3.140;2023-11-21T08:38:10;19.07;;;14.23;;
18142;SDS011;9197;50.930;3.140;2023-11-21T08:40:37;24.33;;;13.40;;
18142;SDS011;9197;50.930;3.140;2023-11-21T08:43:06;20.33;;;12.33;;
18142;SDS011;9197;50.930;3.140;2023-11-21T08:45:33;20.90;;;12.57;;
18142;SDS011;9197;50.930;3.140;2023-11-21T08:48:00;16.87;;;11.80;;
18142;SDS011;9197;50.930;3.140;2023-11-21T08:50:28;16.53;;;12.67;;
18142;SDS011;9197;50.930;3.140;2023-11-21T08:52:55;17.53;;;10.40;;
18142;SDS011;9197;50.930;3.140;2023-11-21T08:55:22;14.37;;;9.37;;
18142;SDS011;9197;50.930;3.140;2023-11-21T08:57:49;195.03;;;30.20;;
18142;SDS011;9197;50.930;3.140;2023-11-21T09:00:17;9.73;;;7.50;;
18142;SDS011;9197;50.930;3.140;2023-11-21T09:02:44;6.77;;;5.77;;
18142;SDS011;9197;50.930;3.140;2023-11-21T09:05:12;60.63;;;12.00;;
18142;SDS011;9197;50.930;3.140;2023-11-21T09:07:40;852.03;;;110.90;;
18142;SDS011;9197;50.930;3.140;2023-11-21T09:10:08;105.47;;;16.63;;
18142;SDS011;9197;50.930;3.140;2023-11-21T09:12:36;372.10;;;49.27;;
18142;SDS011;9197;50.930;3.140;2023-11-21T09:15:04;976.17;;;117.97;;
18142;SDS011;9197;50.930;3.140;2023-11-21T09:17:34;767.50;;;88.40;;
18142;SDS011;9197;50.930;3.140;2023-11-21T09:20:01;1289.00;;;161.63;;
18142;SDS011;9197;50.930;3.140;2023-11-21T09:22:31;864.20;;;118.87;;
18142;SDS011;9197;50.930;3.140;2023-11-21T09:24:58;515.33;;;64.13;;
18142;SDS011;9197;50.930;3.140;2023-11-21T09:27:25;393.40;;;47.27;;
18142;SDS011;9197;50.930;3.140;2023-11-21T09:29:52;66.67;;;10.87;;
18142;SDS011;9197;50.930;3.140;2023-11-21T09:32:20;172.23;;;24.17;;
18142;SDS011;9197;50.930;3.140;2023-11-21T09:34:49;30.30;;;7.03;;
18142;SDS011;9197;50.930;3.140;2023-11-21T09:37:16;39.73;;;7.83;;
18142;SDS011;9197;50.930;3.140;2023-11-21T09:39:44;6.37;;;4.00;;
18142;SDS011;9197;50.930;3.140;2023-11-21T09:42:13;8.83;;;3.40;;
18142;SDS011;9197;50.930;3.140;2023-11-21T09:44:45;5.00;;;2.60;;
18142;SDS011;9197;50.930;3.140;2023-11-21T09:47:21;5.43;;;2.40;;
18142;SDS011;9197;50.930;3.140;2023-11-21T09:49:50;9.03;;;2.57;;
18142;SDS011;9197;50.930;3.140;2023-11-21T09:52:22;5.87;;;3.13;;
18142;SDS011;9197;50.930;3.140;2023-11-21T09:54:51;6.43;;;3.17;;
18142;SDS011;9197;50.930;3.140;2023-11-21T09:57:20;8.07;;;3.67;;
18142;SDS011;9197;50.930;3.140;2023-11-21T09:59:49;12.17;;;8.50;;
18142;SDS011;9197;50.930;3.140;2023-11-21T10:02:20;5.50;;;3.80;;
18142;SDS011;9197;50.930;3.140;2023-11-21T10:04:52;6.00;;;3.50;;
18142;SDS011;9197;50.930;3.140;2023-11-21T10:07:20;7.07;;;3.17;;
18142;SDS011;9197;50.930;3.140;2023-11-21T10:09:47;5.60;;;3.67;;
18142;SDS011;9197;50.930;3.140;2023-11-21T10:12:16;4.80;;;2.30;;
18142;SDS011;9197;50.930;3.140;2023-11-21T10:14:45;5.60;;;2.20;;
18142;SDS011;9197;50.930;3.140;2023-11-21T10:17:14;4.87;;;2.53;;
18142;SDS011;9197;50.930;3.140;2023-11-21T10:19:45;8.27;;;2.47;;
18142;SDS011;9197;50.930;3.140;2023-11-21T10:22:15;7.43;;;2.23;;
18142;SDS011;9197;50.930;3.140;2023-11-21T10:24:42;9.80;;;3.07;;
18142;SDS011;9197;50.930;3.140;2023-11-21T10:27:09;4.67;;;2.37;;
18142;SDS011;9197;50.930;3.140;2023-11-21T10:29:37;7.23;;;2.83;;
18142;SDS011;9197;50.930;3.140;2023-11-21T10:32:07;5.73;;;2.33;;
18142;SDS011;9197;50.930;3.140;2023-11-21T10:34:35;7.97;;;3.03;;
18142;SDS011;9197;50.930;3.140;2023-11-21T10:37:10;6.37;;;2.87;;
18142;SDS011;9197;50.930;3.140;2023-11-21T10:39:39;4.70;;;3.27;;
18142;SDS011;9197;50.930;3.140;2023-11-21T10:42:09;11.43;;;4.53;;
18142;SDS011;9197;50.930;3.140;2023-11-21T10:44:36;6.53;;;3.57;;
18142;SDS011;9197;50.930;3.140;2023-11-21T10:47:03;12.13;;;4.17;;
18142;SDS011;9197;50.930;3.140;2023-11-21T10:49:30;10.70;;;4.23;;
18142;SDS011;9197;50.930;3.140;2023-11-21T10:51:57;11.80;;;5.80;;
18142;SDS011;9197;50.930;3.140;2023-11-21T10:54:24;9.47;;;5.03;;
18142;SDS011;9197;50.930;3.140;2023-11-21T10:56:56;7.90;;;4.87;;
18142;SDS011;9197;50.930;3.140;2023-11-21T10:59:25;11.77;;;5.17;;
18142;SDS011;9197;50.930;3.140;2023-11-21T11:01:54;10.43;;;4.13;;
18142;SDS011;9197;50.930;3.140;2023-11-21T11:04:26;6.63;;;4.67;;
18142;SDS011;9197;50.930;3.140;2023-11-21T11:06:54;6.73;;;4.90;;
18142;SDS011;9197;50.930;3.140;2023-11-21T11:09:23;7.97;;;4.47;;
18142;SDS011;9197;50.930;3.140;2023-11-21T11:11:51;6.77;;;4.70;;
18142;SDS011;9197;50.930;3.140;2023-11-21T11:14:20;12.10;;;5.23;;
18142;SDS011;9197;50.930;3.140;2023-11-21T11:16:52;4.43;;;3.87;;
18142;SDS011;9197;50.930;3.140;2023-11-21T11:19:20;4.93;;;3.80;;
18142;SDS011;9197;50.930;3.140;2023-11-21T11:21:49;7.30;;;4.50;;
18142;SDS011;9197;50.930;3.140;2023-11-21T11:24:33;5.77;;;4.10;;
18142;SDS011;9197;50.930;3.140;2023-11-21T11:27:15;4.10;;;3.60;;
18142;SDS011;9197;50.930;3.140;2023-11-21T11:29:55;9.07;;;4.50;;
18142;SDS011;9197;50.930;3.140;2023-11-21T11:32:39;9.77;;;4.40;;
18142;SDS011;9197;50.930;3.140;2023-11-21T11:35:16;9.80;;;4.40;;
18142;SDS011;9197;50.930;3.140;2023-11-21T11:37:48;8.20;;;4.37;;
18142;SDS011;9197;50.930;3.140;2023-11-21T11:40:15;12.97;;;6.03;;
18142;SDS011;9197;50.930;3.140;2023-11-21T11:42:55;7.60;;;4.90;;
18142;SDS011;9197;50.930;3.140;2023-11-21T11:45:25;9.37;;;6.83;;
18142;SDS011;9197;50.930;3.140;2023-11-21T11:47:59;11.03;;;4.67;;
18142;SDS011;9197;50.930;3.140;2023-11-21T11:50:28;12.10;;;5.07;;
18142;SDS011;9197;50.930;3.140;2023-11-21T11:53:12;9.90;;;4.07;;
18142;SDS011;9197;50.930;3.140;2023-11-21T11:55:40;8.57;;;4.17;;
18142;SDS011;9197;50.930;3.140;2023-11-21T11:58:07;9.30;;;4.90;;
18142;SDS011;9197;50.930;3.140;2023-11-21T12:00:36;9.23;;;4.57;;
18142;SDS011;9197;50.930;3.140;2023-11-21T12:03:05;14.47;;;4.90;;
18142;SDS011;9197;50.930;3.140;2023-11-21T12:05:33;11.70;;;5.17;;
18142;SDS011;9197;50.930;3.140;2023-11-21T12:08:04;9.87;;;4.93;;
18142;SDS011;9197;50.930;3.140;2023-11-21T12:10:32;12.97;;;4.87;;
18142;SDS011;9197;50.930;3.140;2023-11-21T12:13:01;7.60;;;4.17;;
18142;SDS011;9197;50.930;3.140;2023-11-21T12:15:30;10.70;;;4.37;;
18142;SDS011;9197;50.930;3.140;2023-11-21T12:17:59;8.37;;;4.03;;
18142;SDS011;9197;50.930;3.140;2023-11-21T12:20:26;13.27;;;3.60;;
18142;SDS011;9197;50.930;3.140;2023-11-21T12:22:55;13.17;;;4.17;;
18142;SDS011;9197;50.930;3.140;2023-11-21T12:25:24;9.30;;;3.27;;
18142;SDS011;9197;50.930;3.140;2023-11-21T12:27:54;9.27;;;3.30;;
18142;SDS011;9197;50.930;3.140;2023-11-21T12:30:22;12.23;;;3.53;;
18142;SDS011;9197;50.930;3.140;2023-11-21T12:32:53;9.87;;;3.10;;
18142;SDS011;9197;50.930;3.140;2023-11-21T12:35:24;6.93;;;2.63;;
18142;SDS011;9197;50.930;3.140;2023-11-21T12:37:53;5.20;;;2.80;;
18142;SDS011;9197;50.930;3.140;2023-11-21T12:40:22;8.13;;;2.70;;
18142;SDS011;9197;50.930;3.140;2023-11-21T12:42:51;7.90;;;3.07;;
18142;SDS011;9197;50.930;3.140;2023-11-21T12:45:19;9.40;;;3.83;;
18142;SDS011;9197;50.930;3.140;2023-11-21T12:47:48;4.60;;;2.00;;
18142;SDS011;9197;50.930;3.140;2023-11-21T12:50:18;4.83;;;2.17;;
18142;SDS011;9197;50.930;3.140;2023-11-21T12:52:50;9.40;;;2.97;;
18142;SDS011;9197;50.930;3.140;2023-11-21T12:55:19;8.80;;;3.03;;
18142;SDS011;9197;50.930;3.140;2023-11-21T12:57:48;6.60;;;2.10;;
18142;SDS011;9197;50.930;3.140;2023-11-21T13:00:17;9.07;;;1.87;;
18142;SDS011;9197;50.930;3.140;2023-11-21T13:02:52;8.93;;;3.73;;
18142;SDS011;9197;50.930;3.140;2023-11-21T13:05:28;6.53;;;1.60;;
18142;SDS011;9197;50.930;3.140;2023-11-21T13:07:58;3.73;;;1.43;;
18142;SDS011;9197;50.930;3.140;2023-11-21T13:10:28;3.40;;;1.47;;
18142;SDS011;9197;50.930;3.140;2023-11-21T13:12:56;4.80;;;2.00;;
18142;SDS011;9197;50.930;3.140;2023-11-21T13:15:25;7.17;;;3.27;;
18142;SDS011;9197;50.930;3.140;2023-11-21T13:17:53;3.63;;;1.63;;
18142;SDS011;9197;50.930;3.140;2023-11-21T13:20:22;3.93;;;2.00;;
18142;SDS011;9197;50.930;3.140;2023-11-21T13:22:50;3.90;;;1.77;;
18142;SDS011;9197;50.930;3.140;2023-11-21T13:25:21;7.33;;;2.30;;
18142;SDS011;9197;50.930;3.140;2023-11-21T13:27:48;7.60;;;2.30;;
18142;SDS011;9197;50.930;3.140;2023-11-21T13:30:16;6.90;;;2.43;;
18142;SDS011;9197;50.930;3.140;2023-11-21T13:32:44;4.43;;;2.60;;
18142;SDS011;9197;50.930;3.140;2023-11-21T13:35:12;7.20;;;2.30;;
18142;SDS011;9197;50.930;3.140;2023-11-21T13:37:48;1.90;;;1.63;;
18142;SDS011;9197;50.930;3.140;2023-11-21T13:40:22;4.27;;;2.57;;
18142;SDS011;9197;50.930;3.140;2023-11-21T13:42:53;4.80;;;2.70;;
18142;SDS011;9197;50.930;3.140;2023-11-21T13:45:23;7.40;;;3.90;;
18142;SDS011;9197;50.930;3.140;2023-11-21T13:47:51;5.07;;;1.87;;
18142;SDS011;9197;50.930;3.140;2023-11-21T13:50:23;4.67;;;2.10;;
18142;SDS011;9197;50.930;3.140;2023-11-21T13:52:58;4.63;;;2.70;;
18142;SDS011;9197;50.930;3.140;2023-11-21T13:55:29;8.13;;;4.57;;
18142;SDS011;9197;50.930;3.140;2023-11-21T13:57:57;4.83;;;3.93;;
18142;SDS011;9197;50.930;3.140;2023-11-21T14:00:24;8.63;;;2.97;;
18142;SDS011;9197;50.930;3.140;2023-11-21T14:03:09;7.93;;;2.33;;
18142;SDS011;9197;50.930;3.140;2023-11-21T14:05:43;5.70;;;1.97;;
18142;SDS011;9197;50.930;3.140;2023-11-21T14:08:12;4.73;;;1.73;;
18142;SDS011;9197;50.930;3.140;2023-11-21T14:10:43;5.67;;;1.90;;
18142;SDS011;9197;50.930;3.140;2023-11-21T14:13:14;4.30;;;2.20;;
18142;SDS011;9197;50.930;3.140;2023-11-21T14:15:42;3.23;;;1.53;;
18142;SDS011;9197;50.930;3.140;2023-11-21T14:18:11;1.97;;;1.43;;
18142;SDS011;9197;50.930;3.140;2023-11-21T14:20:42;11.03;;;7.03;;
18142;SDS011;9197;50.930;3.140;2023-11-21T14:23:09;3.30;;;1.63;;
18142;SDS011;9197;50.930;3.140;2023-11-21T14:25:37;12.97;;;6.97;;
18142;SDS011;9197;50.930;3.140;2023-11-21T14:28:08;14.30;;;7.00;;
18142;SDS011;9197;50.930;3.140;2023-11-21T14:30:37;4.90;;;1.70;;
18142;SDS011;9197;50.930;3.140;2023-11-21T14:33:05;5.20;;;2.33;;
18142;SDS011;9197;50.930;3.140;2023-11-21T14:35:33;4.40;;;2.43;;
18142;SDS011;9197;50.930;3.140;2023-11-21T14:38:00;8.73;;;4.10;;
18142;SDS011;9197;50.930;3.140;2023-11-21T14:40:30;6.63;;;1.90;;
18142;SDS011;9197;50.930;3.140;2023-11-21T14:42:58;34.70;;;16.77;;
18142;SDS011;9197;50.930;3.140;2023-11-21T14:45:27;3.03;;;2.07;;
18142;SDS011;9197;50.930;3.140;2023-11-21T14:47:55;4.00;;;2.67;;
18142;SDS011;9197;50.930;3.140;2023-11-21T14:50:31;4.17;;;2.13;;